aviador You're here:

K24A Decoded Metar

in
Report Time2018-02-25 10:55:00
UTC Time2018-02-25 11:19:01
Flight Rules vfr VFR
Wind220° at 09 kt
W.Rank220° ranks 24
Current wind is above 220° avg. (6.3)
Visibility9999 m
Phenomena:N/A
Clouds:Broken 038 Hf
Overcast 046 Hf
Expected CloudBase > 2,400 ft AGL from Temp-Dew spread
Ceiling3,800 ft
Temp17°C
Dew Point11°C (68% RH)
AAT14.1°C
QNH1017 hPa
Raw Report
K24A 251055Z AUTO 22009KT 10SM BKN038 OVC046 17/11 A3004 RMK AO2
T01710107=

Extra information for K24A:More info

Social comments